Hovedside
METAR-TAF:

METAR-TAF

Lufthavner :

Alturas Municipal Airport

Alturas, California, USA

breddegrad: 41-29-29N, lengdegrad: 120-33-52W, høyde over havet: 1333 m

Gjeldene værobservasjon

Denne rapporten ble laget for 51 minutter siden, klokken 18:55 UTC
Flau vind
Temperatur 25°C
Luftfuktighet 30%
Trykk 1022 hPa
Sikt: 16.1 km
Skyfri himmel

METAR: KAAT 021855Z AUTO 00000KT 10SM CLR 25/06 A3019 RMK AO2 SLP191 T02500061

Tid: 12:46 (19:46 UTC)


TAF: fraværende

Værobservasjoner og værvarsel for over 4000 flyplasser (METAR- og TAF-rapporter).

Tilgjengelige stasjoner er representert av de røde og gule prikkene på kartet.

Hold musepekeren over prikken for å se navnet på stasjonen.

Klikk så for å se værobservasjoner og -varsler.

For å forandre kartet kan du klikke på den grønne knappen med svart kryss for å zoome inn, på den grønne knappen med strek for å zoome ut, eller på de grønne pilene for å se tilstøtende kart.


METAR-TAF: